Bastille Street — A8YZ6 — position and weather

sailwx.info

Track history (hours):
 
Tides and Currents Weather Stations Pressure Air Temp Water Temp Dewpoint Dewpoint Depression Visibility Wind Speed Wind Dir Waves Ship Positions

Bastille Street

Last reported at 2015-Mar-05 02:27 UTC. Time now 2015-Mar-05 02:40 UTC.
Position N 51°53' E 004°22'.

Length 180 m; draft 8 m.

Type: Tanker. MMSI: 636015161.

Date/timePositionNaut miles runAvg speedWind from/ knotsBaromVisibWave heightAir tempDewpointWater temp
2015-Mar-05 02:27N 51°53' E 004°22'0 0.0
2015-Mar-05 01:21N 51°53' E 004°22'0 0.0
2015-Mar-05 00:30N 51°53' E 004°22'0 0.0
2015-Mar-04 23:30N 51°53' E 004°22'0 0.0
2015-Mar-04 22:27N 51°53' E 004°22'0 0.0
2015-Mar-04 21:27N 51°53' E 004°22'0 0.0
2015-Mar-04 20:30N 51°53' E 004°22'0 0.0
2015-Mar-04 19:27N 51°53' E 004°22'0 0.0
2015-Mar-04 18:24N 51°53' E 004°22'0 0.0
2015-Mar-04 17:33N 51°53' E 004°22'0 0.0
2015-Mar-04 16:33N 51°53' E 004°22'0 0.0
2015-Mar-04 15:33N 51°53' E 004°22'0 0.0
2015-Mar-04 14:30N 51°53' E 004°22'0 0.0
2015-Mar-04 13:33N 51°53' E 004°22'0 0.0
2015-Mar-04 12:33N 51°53' E 004°22'0 0.0
2015-Mar-04 11:33N 51°53' E 004°22'0 0.0
2015-Mar-04 10:24N 51°53' E 004°22'0 0.0
2015-Mar-04 09:24N 51°53' E 004°22'0 0.0
2015-Mar-04 08:30N 51°53' E 004°22'0 0.0
2015-Mar-04 07:33N 51°53' E 004°22'0 0.0
2015-Mar-04 06:33N 51°53' E 004°22'0 0.0
2015-Mar-04 05:33N 51°53' E 004°22'0 0.0
2015-Mar-04 04:30N 51°53' E 004°22'0 0.0
2015-Mar-04 03:21N 51°53' E 004°22'0 0.0
2015-Mar-04 02:30N 51°53' E 004°22'0 0.0
2015-Mar-04 01:33N 51°53' E 004°22'0 0.0
2015-Mar-04 00:33N 51°53' E 004°22'0 0.0
2015-Mar-03 23:33N 51°53' E 004°22'0 0.0
2015-Mar-03 22:33N 51°53' E 004°22'0 0.0
2015-Mar-03 21:30N 51°53' E 004°22'1 0.7
2015-Mar-03 20:34N 51°54' E 004°22'6 6.3
2015-Mar-03 19:34N 51°56' E 004°13'9 9.4
2015-Mar-03 18:34N 52°00' E 003°59'8 7.9
2015-Mar-03 17:34N 51°59' E 003°46'6 5.3
2015-Mar-03 16:21N 51°56' E 003°37'0 0.1
2015-Mar-03 15:18N 51°56' E 003°37'0 0.0
2015-Mar-03 14:24N 51°56' E 003°37'0 0.0
2015-Mar-03 13:30N 51°56' E 003°37'0 0.0
2015-Mar-03 12:24N 51°56' E 003°37'0 0.0
2015-Mar-03 11:30N 51°56' E 003°37'0 0.0
2015-Mar-03 10:18N 51°56' E 003°37'0 0.0
2015-Mar-03 09:27N 51°56' E 003°37'0 0.1
2015-Mar-03 08:18N 51°56' E 003°37'0 0.0
2015-Mar-03 07:24N 51°56' E 003°37'0 0.0
2015-Mar-03 04:06N 51°56' E 003°37'0 0.0
2015-Mar-03 02:33N 51°56' E 003°37'0 0.0
2015-Mar-03 01:18N 51°56' E 003°37'0 0.0
2015-Mar-03 00:06N 51°56' E 003°37'0 0.1
2015-Mar-02 23:03N 51°56' E 003°37'0 0.1
2015-Mar-02 22:33N 51°56' E 003°37'0 0.0
2015-Mar-02 21:03N 51°56' E 003°37'0 0.1
2015-Mar-02 20:06N 51°56' E 003°37'0 0.0
2015-Mar-02 18:30N 51°56' E 003°37'0 0.0
2015-Mar-02 16:27N 51°56' E 003°37'0 0.1
2015-Mar-02 15:30N 51°56' E 003°37'0 0.0
2015-Mar-02 14:30N 51°56' E 003°37'0 0.0
2015-Mar-02 12:15N 51°56' E 003°37'0 0.0
2015-Mar-02 11:24N 51°56' E 003°37'0 0.0
2015-Mar-02 10:27N 51°56' E 003°37'0 0.1
2015-Mar-02 09:28N 51°56' E 003°37'7 7.9
2015-Mar-02 08:33N 51°55' E 003°26'3811.3
2015-Mar-02 05:11N 51°40' E 002°29'811.5
2015-Mar-02 04:31N 51°35' E 002°21'1212.1
2015-Mar-02 03:33N 51°26' E 002°08'1212.5
2015-Mar-02 02:34N 51°17' E 001°54'1313.0
2015-Mar-02 01:33N 51°07' E 001°41'1313.4
2015-Mar-02 00:33N 50°57' E 001°27'1713.0
2015-Mar-01 23:14N 50°40' E 001°19'3912.6
2015-Mar-01 20:07N 50°23' E 000°23'  
2015-Feb-27 04:29N 39°13' W 009°51'1213.1
2015-Feb-27 03:33N 39°01' W 009°51'1313.3
2015-Feb-27 02:33N 38°48' W 009°51'1313.2
2015-Feb-27 01:33N 38°35' W 009°49'1313.2
2015-Feb-27 00:33N 38°22' W 009°46'1413.2
2015-Feb-26 23:32N 38°09' W 009°42'1313.0
2015-Feb-26 22:33N 37°56' W 009°38'1313.2
2015-Feb-26 21:33N 37°43' W 009°35'1313.0
2015-Feb-26 20:33N 37°31' W 009°31'1312.3
2015-Feb-26 19:27N 37°18' W 009°27'1111.9
2015-Feb-26 18:33N 37°07' W 009°24'1412.1
2015-Feb-26 17:26N 36°54' W 009°20'1212.7
2015-Feb-26 16:30N 36°45' W 009°10'1313.4
2015-Feb-26 15:32N 36°41' W 008°55'1413.0
2015-Feb-26 14:29N 36°36' W 008°39'1313.6
2015-Feb-26 13:32N 36°31' W 008°24'14414.3
2015-Feb-26 03:28N 35°59' W 005°31'1111.7
2015-Feb-26 02:33N 36°02' W 005°18'  
2015-Feb-23 14:05N 36°52' E 002°34'6 8.3
2015-Feb-23 13:19N 36°53' E 002°42'  
Track history (hours):
 
Tides and Currents Weather Stations Pressure Air Temp Water Temp Dewpoint Dewpoint Depression Visibility Wind Speed Wind Dir Waves Ship Positions

Bastille Street

Last reported at 2015-Mar-05 02:27 UTC. Time now 2015-Mar-05 02:40 UTC.
Position N 51°53' E 004°22'.

Length 180 m; draft 8 m.

Type: Tanker. MMSI: 636015161.

Date/timePositionNaut miles runAvg speedWind from/ knotsBaromVisibWave heightAir tempDewpointWater temp
2015-Mar-05 02:27N 51°53' E 004°22'0 0.0
2015-Mar-05 01:21N 51°53' E 004°22'0 0.0
2015-Mar-05 00:30N 51°53' E 004°22'0 0.0
2015-Mar-04 23:30N 51°53' E 004°22'0 0.0
2015-Mar-04 22:27N 51°53' E 004°22'0 0.0
2015-Mar-04 21:27N 51°53' E 004°22'0 0.0
2015-Mar-04 20:30N 51°53' E 004°22'0 0.0
2015-Mar-04 19:27N 51°53' E 004°22'0 0.0
2015-Mar-04 18:24N 51°53' E 004°22'0 0.0
2015-Mar-04 17:33N 51°53' E 004°22'0 0.0
2015-Mar-04 16:33N 51°53' E 004°22'0 0.0
2015-Mar-04 15:33N 51°53' E 004°22'0 0.0
2015-Mar-04 14:30N 51°53' E 004°22'0 0.0
2015-Mar-04 13:33N 51°53' E 004°22'0 0.0
2015-Mar-04 12:33N 51°53' E 004°22'0 0.0
2015-Mar-04 11:33N 51°53' E 004°22'0 0.0
2015-Mar-04 10:24N 51°53' E 004°22'0 0.0
2015-Mar-04 09:24N 51°53' E 004°22'0 0.0
2015-Mar-04 08:30N 51°53' E 004°22'0 0.0
2015-Mar-04 07:33N 51°53' E 004°22'0 0.0
2015-Mar-04 06:33N 51°53' E 004°22'0 0.0
2015-Mar-04 05:33N 51°53' E 004°22'0 0.0
2015-Mar-04 04:30N 51°53' E 004°22'0 0.0
2015-Mar-04 03:21N 51°53' E 004°22'0 0.0
2015-Mar-04 02:30N 51°53' E 004°22'0 0.0
2015-Mar-04 01:33N 51°53' E 004°22'0 0.0
2015-Mar-04 00:33N 51°53' E 004°22'0 0.0
2015-Mar-03 23:33N 51°53' E 004°22'0 0.0
2015-Mar-03 22:33N 51°53' E 004°22'0 0.0
2015-Mar-03 21:30N 51°53' E 004°22'1 0.7
2015-Mar-03 20:34N 51°54' E 004°22'6 6.3
2015-Mar-03 19:34N 51°56' E 004°13'9 9.4
2015-Mar-03 18:34N 52°00' E 003°59'8 7.9
2015-Mar-03 17:34N 51°59' E 003°46'6 5.3
2015-Mar-03 16:21N 51°56' E 003°37'0 0.1
2015-Mar-03 15:18N 51°56' E 003°37'0 0.0
2015-Mar-03 14:24N 51°56' E 003°37'0 0.0
2015-Mar-03 13:30N 51°56' E 003°37'0 0.0
2015-Mar-03 12:24N 51°56' E 003°37'0 0.0
2015-Mar-03 11:30N 51°56' E 003°37'0 0.0
2015-Mar-03 10:18N 51°56' E 003°37'0 0.0
2015-Mar-03 09:27N 51°56' E 003°37'0 0.1
2015-Mar-03 08:18N 51°56' E 003°37'0 0.0
2015-Mar-03 07:24N 51°56' E 003°37'0 0.0
2015-Mar-03 04:06N 51°56' E 003°37'0 0.0
2015-Mar-03 02:33N 51°56' E 003°37'0 0.0
2015-Mar-03 01:18N 51°56' E 003°37'0 0.0
2015-Mar-03 00:06N 51°56' E 003°37'0 0.1
2015-Mar-02 23:03N 51°56' E 003°37'0 0.1
2015-Mar-02 22:33N 51°56' E 003°37'0 0.0
2015-Mar-02 21:03N 51°56' E 003°37'0 0.1
2015-Mar-02 20:06N 51°56' E 003°37'0 0.0
2015-Mar-02 18:30N 51°56' E 003°37'0 0.0
2015-Mar-02 16:27N 51°56' E 003°37'0 0.1
2015-Mar-02 15:30N 51°56' E 003°37'0 0.0
2015-Mar-02 14:30N 51°56' E 003°37'0 0.0
2015-Mar-02 12:15N 51°56' E 003°37'0 0.0
2015-Mar-02 11:24N 51°56' E 003°37'0 0.0
2015-Mar-02 10:27N 51°56' E 003°37'0 0.1
2015-Mar-02 09:28N 51°56' E 003°37'7 7.9
2015-Mar-02 08:33N 51°55' E 003°26'3811.3
2015-Mar-02 05:11N 51°40' E 002°29'811.5
2015-Mar-02 04:31N 51°35' E 002°21'1212.1
2015-Mar-02 03:33N 51°26' E 002°08'1212.5
2015-Mar-02 02:34N 51°17' E 001°54'1313.0
2015-Mar-02 01:33N 51°07' E 001°41'1313.4
2015-Mar-02 00:33N 50°57' E 001°27'1713.0
2015-Mar-01 23:14N 50°40' E 001°19'3912.6
2015-Mar-01 20:07N 50°23' E 000°23'  
2015-Feb-27 04:29N 39°13' W 009°51'1213.1
2015-Feb-27 03:33N 39°01' W 009°51'1313.3
2015-Feb-27 02:33N 38°48' W 009°51'1313.2
2015-Feb-27 01:33N 38°35' W 009°49'1313.2
2015-Feb-27 00:33N 38°22' W 009°46'1413.2
2015-Feb-26 23:32N 38°09' W 009°42'1313.0
2015-Feb-26 22:33N 37°56' W 009°38'1313.2
2015-Feb-26 21:33N 37°43' W 009°35'1313.0
2015-Feb-26 20:33N 37°31' W 009°31'1312.3
2015-Feb-26 19:27N 37°18' W 009°27'1111.9
2015-Feb-26 18:33N 37°07' W 009°24'1412.1
2015-Feb-26 17:26N 36°54' W 009°20'1212.7
2015-Feb-26 16:30N 36°45' W 009°10'1313.4
2015-Feb-26 15:32N 36°41' W 008°55'1413.0
2015-Feb-26 14:29N 36°36' W 008°39'1313.6
2015-Feb-26 13:32N 36°31' W 008°24'14414.3
2015-Feb-26 03:28N 35°59' W 005°31'1111.7
2015-Feb-26 02:33N 36°02' W 005°18'  
2015-Feb-23 14:05N 36°52' E 002°34'6 8.3
2015-Feb-23 13:19N 36°53' E 002°42'  

Dump ship's entire track history